createdAt,value
2018-12-27T00:02:28.277Z,15.43
2018-12-27T00:04:59.195Z,14.80
2018-12-27T00:07:30.202Z,14.37
2018-12-27T00:10:01.213Z,13.13
2018-12-27T00:12:32.358Z,13.37
2018-12-27T00:15:03.426Z,13.33
2018-12-27T00:17:34.440Z,13.17
2018-12-27T00:20:05.417Z,12.00
2018-12-27T00:22:36.428Z,13.27
2018-12-27T00:25:10.792Z,12.70
2018-12-27T00:27:41.808Z,12.03
2018-12-27T00:30:13.087Z,12.60
2018-12-27T00:32:44.365Z,12.33
2018-12-27T00:35:15.629Z,11.97
2018-12-27T00:37:46.927Z,11.83
2018-12-27T00:40:18.181Z,11.90
2018-12-27T00:42:49.437Z,12.17
2018-12-27T00:45:20.738Z,12.87
2018-12-27T00:47:51.982Z,12.50
2018-12-27T00:50:23.267Z,12.33
2018-12-27T00:52:54.530Z,12.97
2018-12-27T00:55:25.810Z,13.23
2018-12-27T00:57:57.065Z,12.47
2018-12-27T01:00:28.366Z,12.47
2018-12-27T01:02:59.657Z,12.57
2018-12-27T01:05:30.905Z,11.03
2018-12-27T01:08:02.230Z,11.77
2018-12-27T01:10:33.487Z,11.77
2018-12-27T01:13:04.773Z,12.23
2018-12-27T01:15:36.101Z,10.40
2018-12-27T01:18:07.360Z,12.10
2018-12-27T01:20:38.643Z,12.00
2018-12-27T01:23:09.896Z,11.67
2018-12-27T01:25:41.165Z,11.90
2018-12-27T01:28:12.422Z,11.63
2018-12-27T01:30:43.660Z,11.53
2018-12-27T01:33:18.655Z,11.97
2018-12-27T01:35:47.896Z,10.93
2018-12-27T01:38:19.199Z,10.97
2018-12-27T01:40:51.420Z,11.60
2018-12-27T01:43:22.799Z,11.77
2018-12-27T01:45:54.075Z,11.37
2018-12-27T01:48:25.341Z,11.70
2018-12-27T01:50:56.643Z,11.20
2018-12-27T01:53:27.918Z,12.00
2018-12-27T01:55:59.161Z,10.97
2018-12-27T01:58:30.428Z,12.27
2018-12-27T02:01:01.792Z,12.70
2018-12-27T02:03:33.047Z,13.13
2018-12-27T02:06:04.364Z,13.13
2018-12-27T02:08:35.652Z,12.40
2018-12-27T02:11:06.957Z,13.57
2018-12-27T02:13:38.230Z,13.43
2018-12-27T02:16:09.604Z,14.47
2018-12-27T02:18:40.864Z,14.50
2018-12-27T02:21:12.191Z,14.73
2018-12-27T02:23:43.453Z,15.10
2018-12-27T02:26:14.817Z,15.57
2018-12-27T02:28:46.121Z,14.13
2018-12-27T02:31:17.405Z,14.97
2018-12-27T02:33:48.658Z,15.80
2018-12-27T02:36:19.915Z,14.40
2018-12-27T02:38:51.207Z,14.37
2018-12-27T02:41:22.480Z,14.83
2018-12-27T02:43:53.799Z,16.87
2018-12-27T02:46:25.118Z,17.17
2018-12-27T02:48:56.407Z,17.67
2018-12-27T02:51:27.679Z,17.77
2018-12-27T02:53:58.965Z,17.70
2018-12-27T02:56:30.243Z,19.50
2018-12-27T02:59:01.549Z,18.77
2018-12-27T03:01:32.806Z,20.60
2018-12-27T03:04:04.112Z,19.87
2018-12-27T03:06:35.368Z,19.67
2018-12-27T03:09:07.085Z,19.33
2018-12-27T03:11:38.382Z,20.03
2018-12-27T03:14:09.629Z,19.47
2018-12-27T03:16:40.946Z,19.40
2018-12-27T03:19:12.244Z,19.07
2018-12-27T03:21:43.497Z,19.00
2018-12-27T03:24:14.752Z,18.03
2018-12-27T03:26:46.014Z,18.77
2018-12-27T03:29:17.276Z,18.73
2018-12-27T03:31:48.559Z,19.20
2018-12-27T03:34:19.853Z,17.80
2018-12-27T03:36:51.118Z,18.50
2018-12-27T03:39:22.373Z,17.47
2018-12-27T03:41:53.654Z,17.80
2018-12-27T03:44:24.939Z,18.40
2018-12-27T03:46:56.182Z,20.30
2018-12-27T03:49:27.573Z,18.93
2018-12-27T03:51:58.784Z,20.83
2018-12-27T03:54:30.033Z,19.57
2018-12-27T03:57:01.297Z,18.93
2018-12-27T03:59:32.608Z,18.37
2018-12-27T04:02:03.904Z,20.13
2018-12-27T04:04:35.161Z,18.67
2018-12-27T04:07:06.413Z,19.73
2018-12-27T04:09:37.672Z,20.07
2018-12-27T04:12:08.965Z,19.43
2018-12-27T04:14:40.333Z,19.07
2018-12-27T04:17:11.247Z,18.80
2018-12-27T04:19:42.201Z,17.30
2018-12-27T04:22:13.130Z,19.50
2018-12-27T04:24:44.064Z,17.57
2018-12-27T04:27:14.991Z,17.50
2018-12-27T04:29:45.894Z,18.43
2018-12-27T04:32:16.827Z,17.93
2018-12-27T04:34:47.759Z,18.37
2018-12-27T04:37:18.671Z,17.87
2018-12-27T04:39:49.614Z,19.07
2018-12-27T04:42:20.596Z,18.90
2018-12-27T04:44:51.520Z,18.30
2018-12-27T04:47:22.555Z,18.53
2018-12-27T04:49:53.487Z,18.27
2018-12-27T04:52:24.403Z,19.87
2018-12-27T04:54:55.311Z,19.73
2018-12-27T04:57:26.320Z,18.47
2018-12-27T04:59:57.262Z,18.93
2018-12-27T05:02:28.205Z,18.53
2018-12-27T05:04:59.163Z,19.87
2018-12-27T05:07:30.087Z,18.20
2018-12-27T05:10:01.006Z,20.07
2018-12-27T05:12:31.935Z,19.53
2018-12-27T05:15:02.875Z,19.33
2018-12-27T05:17:33.815Z,18.00
2018-12-27T05:20:04.960Z,19.13
2018-12-27T05:22:35.911Z,18.63
2018-12-27T05:25:06.946Z,19.30
2018-12-27T05:27:37.921Z,18.90
2018-12-27T05:30:08.896Z,19.07
2018-12-27T05:32:39.803Z,19.80
2018-12-27T05:35:10.721Z,21.33
2018-12-27T05:37:41.666Z,20.53
2018-12-27T05:40:12.594Z,19.30
2018-12-27T05:42:43.527Z,20.60
2018-12-27T05:45:14.459Z,19.83
2018-12-27T05:47:45.405Z,18.83
2018-12-27T05:50:16.315Z,20.93
2018-12-27T05:52:47.317Z,19.83
2018-12-27T05:55:18.234Z,20.83
2018-12-27T05:57:49.157Z,19.20
2018-12-27T06:00:20.161Z,20.23
2018-12-27T06:02:51.104Z,18.90
2018-12-27T06:05:22.012Z,20.00
2018-12-27T06:07:52.922Z,20.33
2018-12-27T06:10:23.847Z,23.80
2018-12-27T06:12:54.763Z,22.20
2018-12-27T06:15:26.297Z,22.43
2018-12-27T06:17:57.290Z,27.67
2018-12-27T06:20:28.301Z,31.07
2018-12-27T06:22:59.195Z,24.50
2018-12-27T06:25:30.119Z,23.07
2018-12-27T06:28:01.010Z,24.77
2018-12-27T06:30:31.916Z,24.93
2018-12-27T06:33:02.840Z,25.17
2018-12-27T06:35:33.840Z,26.63
2018-12-27T06:38:04.754Z,26.07
2018-12-27T06:40:35.831Z,24.43
2018-12-27T06:43:06.752Z,23.30
2018-12-27T06:45:37.749Z,23.30
2018-12-27T06:48:08.991Z,24.60
2018-12-27T06:50:39.971Z,23.70
2018-12-27T06:53:11.153Z,24.13
2018-12-27T06:55:43.694Z,22.30
2018-12-27T06:58:14.691Z,23.90
2018-12-27T07:00:45.694Z,24.50
2018-12-27T07:03:16.674Z,24.20
2018-12-27T07:05:47.641Z,25.33
2018-12-27T07:08:18.655Z,24.83
2018-12-27T07:10:49.601Z,25.23
2018-12-27T07:13:20.524Z,27.03
2018-12-27T07:15:52.527Z,26.67
2018-12-27T07:18:23.489Z,29.50
2018-12-27T07:20:54.424Z,26.63
2018-12-27T07:23:25.361Z,28.17
2018-12-27T07:25:56.317Z,24.77
2018-12-27T07:28:27.237Z,25.00
2018-12-27T07:30:58.229Z,24.97
2018-12-27T07:33:29.216Z,25.47
2018-12-27T07:36:00.410Z,27.57
2018-12-27T07:38:31.345Z,25.07
2018-12-27T07:41:02.392Z,25.40
2018-12-27T07:43:33.482Z,26.27
2018-12-27T07:46:10.684Z,29.63
2018-12-27T07:48:37.221Z,25.57
2018-12-27T07:51:08.253Z,26.00
2018-12-27T07:53:39.267Z,26.30
2018-12-27T07:56:10.399Z,25.80
2018-12-27T07:58:41.379Z,27.00
2018-12-27T08:01:12.435Z,26.27
2018-12-27T08:03:43.509Z,27.23
2018-12-27T08:06:14.476Z,25.00
2018-12-27T08:08:45.502Z,25.63
2018-12-27T08:11:16.563Z,24.60
2018-12-27T08:13:47.562Z,24.83
2018-12-27T08:16:18.541Z,25.53
2018-12-27T08:18:50.526Z,24.07
2018-12-27T08:21:21.457Z,24.20
2018-12-27T08:23:52.421Z,23.97
2018-12-27T08:26:24.434Z,24.80
2018-12-27T08:28:56.749Z,25.17
2018-12-27T08:31:27.818Z,26.13
2018-12-27T08:33:58.767Z,25.53
2018-12-27T08:36:29.762Z,23.17
2018-12-27T08:39:00.705Z,22.97
2018-12-27T08:41:33.047Z,24.30
2018-12-27T08:44:04.043Z,24.27
2018-12-27T08:46:34.980Z,23.97
2018-12-27T08:49:06.020Z,25.03
2018-12-27T08:51:37.015Z,26.33
2018-12-27T08:54:08.014Z,25.43
2018-12-27T08:56:40.083Z,24.43
2018-12-27T08:59:11.167Z,23.93
2018-12-27T09:01:42.137Z,27.73
2018-12-27T09:04:13.084Z,25.27
2018-12-27T09:06:44.199Z,26.23
2018-12-27T09:09:15.202Z,25.53
2018-12-27T09:11:46.210Z,27.10
2018-12-27T09:14:17.174Z,27.37
2018-12-27T09:16:48.278Z,27.60
2018-12-27T09:19:19.345Z,29.87
2018-12-27T09:21:50.402Z,26.90
2018-12-27T09:24:21.366Z,28.43
2018-12-27T09:26:52.339Z,27.33
2018-12-27T09:29:23.376Z,27.57
2018-12-27T09:31:54.362Z,28.10
2018-12-27T09:34:25.409Z,28.43
2018-12-27T09:36:56.345Z,27.97
2018-12-27T09:39:27.354Z,29.03
2018-12-27T09:41:58.320Z,29.20
2018-12-27T09:44:29.377Z,27.83
2018-12-27T09:47:00.339Z,29.33
2018-12-27T09:49:31.325Z,28.60
2018-12-27T09:52:02.389Z,30.83
2018-12-27T09:54:33.386Z,29.90
2018-12-27T09:57:04.342Z,30.10
2018-12-27T09:59:35.427Z,30.80
2018-12-27T10:02:06.307Z,30.33
2018-12-27T10:04:37.337Z,27.83
2018-12-27T10:07:08.270Z,27.13
2018-12-27T10:09:39.240Z,28.97
2018-12-27T10:12:10.204Z,29.70
2018-12-27T10:14:41.182Z,27.83
2018-12-27T10:17:12.183Z,28.53
2018-12-27T10:19:43.227Z,30.67
2018-12-27T10:22:14.235Z,27.30
2018-12-27T10:24:45.160Z,28.20
2018-12-27T10:27:16.304Z,28.50
2018-12-27T10:29:47.291Z,27.93
2018-12-27T10:32:18.418Z,27.23
2018-12-27T10:34:49.341Z,28.00
2018-12-27T10:37:20.382Z,28.47
2018-12-27T10:39:51.293Z,26.90
2018-12-27T10:42:22.359Z,26.20
2018-12-27T10:44:53.475Z,27.13
2018-12-27T10:47:24.450Z,25.57
2018-12-27T10:49:55.440Z,27.27
2018-12-27T10:52:26.409Z,27.53
2018-12-27T10:54:57.379Z,25.17
2018-12-27T10:57:28.341Z,24.87
2018-12-27T10:59:59.348Z,25.30
2018-12-27T11:02:30.289Z,25.53
2018-12-27T11:05:01.281Z,28.67
2018-12-27T11:07:32.321Z,26.63
2018-12-27T11:10:03.353Z,25.17
2018-12-27T11:12:34.376Z,27.23
2018-12-27T11:15:05.469Z,26.67
2018-12-27T11:17:36.539Z,25.43
2018-12-27T11:20:07.577Z,27.17
2018-12-27T11:22:38.761Z,25.43
2018-12-27T11:25:09.747Z,24.63
2018-12-27T11:27:40.947Z,24.77
2018-12-27T11:30:11.872Z,25.33
2018-12-27T11:32:42.889Z,23.53
2018-12-27T11:35:14.770Z,22.83
2018-12-27T11:37:45.790Z,23.57
2018-12-27T11:40:16.820Z,23.70
2018-12-27T11:42:47.781Z,22.73
2018-12-27T11:45:18.763Z,22.37
2018-12-27T11:47:49.730Z,23.20
2018-12-27T11:50:20.675Z,21.63
2018-12-27T11:52:51.629Z,21.17
2018-12-27T11:55:22.658Z,20.67
2018-12-27T11:57:53.580Z,20.37
2018-12-27T12:00:24.597Z,21.33
2018-12-27T12:02:55.508Z,23.40
2018-12-27T12:05:26.408Z,21.30
2018-12-27T12:07:57.353Z,21.10
2018-12-27T12:10:29.908Z,19.83
2018-12-27T12:13:01.754Z,19.63
2018-12-27T12:15:32.796Z,19.30
2018-12-27T12:18:03.738Z,19.97
2018-12-27T12:20:35.726Z,18.60
2018-12-27T12:23:06.938Z,19.67
2018-12-27T12:25:37.854Z,19.27
2018-12-27T12:28:08.881Z,17.27
2018-12-27T12:30:40.897Z,17.83
2018-12-27T12:33:11.873Z,19.33
2018-12-27T12:35:42.817Z,17.90
2018-12-27T12:38:13.745Z,17.73
2018-12-27T12:40:45.277Z,17.47
2018-12-27T12:43:16.394Z,16.83
2018-12-27T12:45:47.306Z,16.97
2018-12-27T12:48:18.257Z,15.90
2018-12-27T12:50:49.220Z,16.83
2018-12-27T12:53:21.227Z,16.37
2018-12-27T12:55:52.238Z,18.20
2018-12-27T12:58:24.234Z,17.20
2018-12-27T13:00:55.204Z,16.63
2018-12-27T13:03:26.169Z,15.13
2018-12-27T13:05:57.108Z,15.90
2018-12-27T13:08:29.075Z,15.87
2018-12-27T13:11:00.051Z,15.73
2018-12-27T13:13:30.999Z,16.10
2018-12-27T13:16:01.960Z,14.93
2018-12-27T13:18:32.942Z,16.23
2018-12-27T13:21:03.901Z,17.17
2018-12-27T13:23:35.315Z,17.77
2018-12-27T13:26:06.277Z,17.97
2018-12-27T13:28:37.313Z,16.93
2018-12-27T13:31:08.268Z,17.83
2018-12-27T13:33:39.337Z,17.60
2018-12-27T13:36:10.287Z,17.87
2018-12-27T13:38:41.236Z,18.03
2018-12-27T13:41:12.192Z,17.40
2018-12-27T13:43:43.183Z,18.57
2018-12-27T13:46:14.117Z,18.60
2018-12-27T13:48:45.085Z,19.27
2018-12-27T13:51:16.079Z,18.50
2018-12-27T13:53:47.006Z,18.03
2018-12-27T13:56:17.930Z,19.23
2018-12-27T13:58:48.844Z,20.13
2018-12-27T14:01:19.830Z,19.27
2018-12-27T14:03:50.823Z,20.07
2018-12-27T14:06:21.742Z,19.17
2018-12-27T14:08:52.690Z,18.67
2018-12-27T14:11:23.645Z,20.40
2018-12-27T14:13:54.593Z,21.37
2018-12-27T14:16:25.528Z,20.80
2018-12-27T14:18:56.517Z,21.53
2018-12-27T14:21:27.438Z,19.67
2018-12-27T14:23:58.376Z,19.77
2018-12-27T14:26:30.454Z,19.57
2018-12-27T14:29:01.477Z,19.87
2018-12-27T14:31:32.458Z,20.37
2018-12-27T14:34:03.455Z,20.67
2018-12-27T14:36:39.716Z,19.40
2018-12-27T14:39:08.286Z,20.57
2018-12-27T14:41:39.210Z,19.70
2018-12-27T14:44:10.171Z,20.83
2018-12-27T14:46:41.137Z,21.13
2018-12-27T14:49:12.120Z,21.57
2018-12-27T14:51:43.022Z,22.27
2018-12-27T14:54:14.349Z,21.87
2018-12-27T14:56:45.307Z,20.87
2018-12-27T14:59:16.232Z,21.80
2018-12-27T15:01:47.181Z,21.87
2018-12-27T15:04:18.179Z,21.43
2018-12-27T15:06:49.092Z,20.47
2018-12-27T15:09:20.036Z,22.17
2018-12-27T15:11:50.951Z,21.17
2018-12-27T15:14:21.877Z,22.10
2018-12-27T15:16:52.816Z,22.77
2018-12-27T15:19:23.732Z,21.97
2018-12-27T15:21:54.696Z,23.97
2018-12-27T15:24:25.702Z,23.57
2018-12-27T15:26:56.656Z,24.47
2018-12-27T15:29:27.655Z,26.13
2018-12-27T15:31:58.588Z,22.80
2018-12-27T15:34:29.557Z,25.20
2018-12-27T15:37:00.522Z,23.83
2018-12-27T15:39:31.600Z,24.10
2018-12-27T15:42:02.548Z,24.33
2018-12-27T15:44:33.556Z,27.53
2018-12-27T15:47:04.535Z,27.70
2018-12-27T15:49:35.569Z,28.27
2018-12-27T15:52:06.632Z,27.57
2018-12-27T15:54:37.641Z,25.40
2018-12-27T15:57:08.679Z,25.73
2018-12-27T15:59:39.617Z,25.77
2018-12-27T16:02:10.589Z,24.13
2018-12-27T16:04:43.351Z,25.93
2018-12-27T16:07:14.318Z,27.77
2018-12-27T16:09:45.311Z,27.30
2018-12-27T16:12:16.297Z,28.97
2018-12-27T16:14:47.231Z,29.30
2018-12-27T16:17:18.252Z,30.10
2018-12-27T16:19:49.190Z,26.73
2018-12-27T16:22:20.179Z,26.83
2018-12-27T16:24:51.149Z,26.70
2018-12-27T16:27:22.073Z,26.40
2018-12-27T16:29:53.035Z,26.97
2018-12-27T16:32:24.024Z,27.97
2018-12-27T16:34:54.948Z,26.50
2018-12-27T16:37:26.005Z,24.60
2018-12-27T16:39:56.941Z,25.03
2018-12-27T16:42:27.921Z,26.20
2018-12-27T16:44:58.879Z,26.80
2018-12-27T16:47:29.805Z,24.73
2018-12-27T16:50:00.753Z,25.90
2018-12-27T16:52:31.873Z,25.20
2018-12-27T16:55:02.860Z,26.50
2018-12-27T16:57:33.954Z,24.50
2018-12-27T17:00:05.446Z,24.97
2018-12-27T17:02:36.471Z,24.13
2018-12-27T17:05:07.626Z,22.93
2018-12-27T17:07:38.566Z,21.50
2018-12-27T17:10:09.642Z,21.47
2018-12-27T17:12:40.660Z,22.80
2018-12-27T17:15:12.033Z,21.57
2018-12-27T17:17:42.990Z,21.10
2018-12-27T17:20:13.993Z,20.10
2018-12-27T17:22:45.046Z,20.97
2018-12-27T17:25:15.973Z,21.80
2018-12-27T17:27:47.097Z,21.63
2018-12-27T17:30:18.062Z,21.03
2018-12-27T17:32:49.008Z,20.90
2018-12-27T17:35:19.977Z,20.57
2018-12-27T17:37:51.063Z,20.87
2018-12-27T17:40:22.073Z,20.00
2018-12-27T17:42:53.099Z,20.67
2018-12-27T17:45:24.098Z,19.13
2018-12-27T17:47:55.194Z,20.57
2018-12-27T17:50:26.163Z,23.03
2018-12-27T17:52:57.084Z,21.20
2018-12-27T17:55:28.122Z,21.40
2018-12-27T17:57:59.201Z,20.23
2018-12-27T18:00:30.164Z,21.70
2018-12-27T18:03:01.121Z,22.23
2018-12-27T18:05:32.145Z,21.23
2018-12-27T18:08:03.085Z,21.63
2018-12-27T18:10:34.008Z,23.00
2018-12-27T18:13:05.094Z,24.73
2018-12-27T18:15:36.162Z,27.43
2018-12-27T18:18:07.170Z,29.57
2018-12-27T18:20:38.251Z,23.40
2018-12-27T18:23:09.269Z,24.47
2018-12-27T18:25:41.628Z,24.37
2018-12-27T18:28:12.846Z,25.57
2018-12-27T18:30:43.832Z,27.63
2018-12-27T18:33:14.938Z,26.03
2018-12-27T18:35:45.880Z,25.10
2018-12-27T18:38:16.851Z,23.57
2018-12-27T18:40:47.791Z,23.17
2018-12-27T18:43:18.780Z,23.57
2018-12-27T18:45:49.730Z,24.40
2018-12-27T18:48:20.704Z,25.70
2018-12-27T18:50:51.651Z,28.00
2018-12-27T18:53:22.572Z,25.17
2018-12-27T18:55:53.504Z,24.80
2018-12-27T18:58:24.416Z,24.63
2018-12-27T19:00:55.448Z,24.83
2018-12-27T19:03:26.374Z,24.27
2018-12-27T19:05:57.359Z,23.47
2018-12-27T19:08:28.325Z,22.53
2018-12-27T19:11:35.166Z,22.70
2018-12-27T19:14:07.875Z,21.73
2018-12-27T19:16:39.313Z,23.40
2018-12-27T19:19:15.639Z,22.57
2018-12-27T19:22:14.170Z,21.60
2018-12-27T19:24:45.229Z,20.40
2018-12-27T19:27:16.192Z,20.70
2018-12-27T19:29:47.144Z,23.10
2018-12-27T19:32:18.116Z,19.87
2018-12-27T19:34:50.143Z,21.70
2018-12-27T19:37:21.185Z,22.60
2018-12-27T19:39:52.210Z,21.73
2018-12-27T19:42:23.288Z,20.17
2018-12-27T19:44:54.177Z,21.57
2018-12-27T19:47:25.131Z,20.07
2018-12-27T19:49:56.146Z,20.90
2018-12-27T19:52:27.075Z,22.40
2018-12-27T19:54:58.014Z,21.47
2018-12-27T19:57:28.947Z,21.93
2018-12-27T19:59:59.876Z,21.63
2018-12-27T20:02:30.790Z,20.80
2018-12-27T20:05:01.805Z,22.60
2018-12-27T20:07:34.528Z,23.13
2018-12-27T20:10:06.039Z,22.43
2018-12-27T20:12:37.017Z,25.97
2018-12-27T20:15:08.213Z,24.13
2018-12-27T20:17:39.794Z,25.33
2018-12-27T20:20:10.778Z,25.50
2018-12-27T20:22:41.861Z,26.63
2018-12-27T20:25:12.909Z,26.33
2018-12-27T20:27:43.962Z,25.87
2018-12-27T20:30:14.957Z,25.47
2018-12-27T20:32:46.006Z,25.40
2018-12-27T20:35:17.014Z,25.57
2018-12-27T20:37:48.062Z,27.83
2018-12-27T20:40:19.045Z,26.23
2018-12-27T20:42:49.959Z,24.93
2018-12-27T20:45:21.051Z,25.77
2018-12-27T20:47:52.036Z,24.07
2018-12-27T20:50:23.208Z,26.17
2018-12-27T20:52:54.147Z,25.00
2018-12-27T20:55:25.127Z,23.83
2018-12-27T20:57:56.329Z,22.83
2018-12-27T21:00:28.714Z,25.37
2018-12-27T21:03:02.466Z,23.70
2018-12-27T21:05:33.381Z,24.67
2018-12-27T21:08:04.313Z,25.87
2018-12-27T21:10:35.335Z,25.80
2018-12-27T21:13:06.325Z,24.87
2018-12-27T21:15:37.310Z,23.97
2018-12-27T21:18:08.247Z,23.33
2018-12-27T21:20:39.243Z,24.60
2018-12-27T21:23:10.247Z,23.23
2018-12-27T21:25:41.213Z,23.50
2018-12-27T21:28:12.147Z,23.80
2018-12-27T21:30:46.440Z,22.03
2018-12-27T21:33:26.414Z,23.63
2018-12-27T21:35:57.435Z,23.97
2018-12-27T21:38:28.342Z,23.13
2018-12-27T21:40:59.267Z,23.20
2018-12-27T21:43:37.737Z,22.83
2018-12-27T21:46:10.305Z,25.00
2018-12-27T21:48:41.388Z,23.53
2018-12-27T21:51:13.907Z,20.53
2018-12-27T21:53:44.843Z,20.27
2018-12-27T21:56:18.758Z,21.43
2018-12-27T21:58:52.084Z,22.70
2018-12-27T22:01:25.164Z,22.70
2018-12-27T22:03:59.650Z,23.50
2018-12-27T22:06:44.573Z,21.53
2018-12-27T22:09:13.817Z,21.87
2018-12-27T22:11:44.778Z,20.83
2018-12-27T22:14:15.718Z,23.10
2018-12-27T22:16:46.741Z,23.20
2018-12-27T22:19:17.695Z,23.77
2018-12-27T22:21:48.659Z,24.10
2018-12-27T22:24:19.594Z,24.03
2018-12-27T22:26:50.565Z,24.50
2018-12-27T22:29:21.493Z,25.87
2018-12-27T22:31:52.513Z,23.23
2018-12-27T22:34:23.428Z,18.80
2018-12-27T22:36:54.491Z,19.00
2018-12-27T22:39:25.419Z,19.37
2018-12-27T22:41:56.341Z,20.13
2018-12-27T22:44:27.281Z,18.47
2018-12-27T22:46:58.217Z,20.10
2018-12-27T22:49:29.183Z,19.60
2018-12-27T22:52:00.097Z,18.93
2018-12-27T22:54:31.052Z,18.23
2018-12-27T22:57:02.007Z,18.30
2018-12-27T22:59:32.966Z,19.13
2018-12-27T23:02:04.035Z,17.17
2018-12-27T23:04:35.112Z,16.63
2018-12-27T23:07:06.013Z,16.57
2018-12-27T23:09:37.024Z,15.47
2018-12-27T23:12:08.040Z,14.30
2018-12-27T23:14:39.028Z,14.27
2018-12-27T23:17:23.275Z,14.03
2018-12-27T23:19:54.177Z,14.60
2018-12-27T23:22:25.137Z,14.00
2018-12-27T23:24:56.051Z,12.67
2018-12-27T23:27:27.091Z,13.43
2018-12-27T23:29:58.111Z,13.47
2018-12-27T23:32:29.061Z,13.10
2018-12-27T23:34:59.960Z,11.80
2018-12-27T23:37:30.905Z,11.60
2018-12-27T23:40:01.850Z,11.20
2018-12-27T23:42:32.842Z,11.07
2018-12-27T23:45:03.872Z,11.77
2018-12-27T23:47:34.834Z,11.97
2018-12-27T23:50:05.924Z,11.33
2018-12-27T23:52:37.270Z,12.17
2018-12-27T23:55:12.934Z,13.40
2018-12-27T23:57:43.870Z,12.70
